createdAt,value
2023-03-01T00:00:01.438Z,99.90
2023-03-01T00:02:28.112Z,99.90
2023-03-01T00:04:54.698Z,99.90
2023-03-01T00:07:21.352Z,99.90
2023-03-01T00:09:47.920Z,99.90
2023-03-01T00:12:14.461Z,99.90
2023-03-01T00:14:41.243Z,99.90
2023-03-01T00:17:08.067Z,99.90
2023-03-01T00:19:34.846Z,99.90
2023-03-01T00:22:01.475Z,99.90
2023-03-01T00:24:28.148Z,99.90
2023-03-01T00:26:59.258Z,99.90
2023-03-01T00:29:26.649Z,99.90
2023-03-01T00:31:53.322Z,99.90
2023-03-01T00:34:19.926Z,99.90
2023-03-01T00:36:46.533Z,99.90
2023-03-01T00:39:15.749Z,99.90
2023-03-01T00:41:43.404Z,99.90
2023-03-01T00:44:10.641Z,99.90
2023-03-01T00:46:37.508Z,99.90
2023-03-01T00:49:05.528Z,99.90
2023-03-01T00:51:33.342Z,99.90
2023-03-01T00:54:02.172Z,99.90
2023-03-01T00:56:30.801Z,99.90
2023-03-01T00:58:57.686Z,99.90
2023-03-01T01:01:31.835Z,99.90
2023-03-01T01:04:04.618Z,99.90
2023-03-01T01:06:34.544Z,99.90
2023-03-01T01:09:02.068Z,99.90
2023-03-01T01:11:30.606Z,99.90
2023-03-01T01:13:58.138Z,99.90
2023-03-01T01:16:26.621Z,99.90
2023-03-01T01:18:53.667Z,99.90
2023-03-01T01:21:22.642Z,99.90
2023-03-01T01:23:50.122Z,99.90
2023-03-01T01:26:19.885Z,99.90
2023-03-01T01:28:48.582Z,99.90
2023-03-01T01:31:15.722Z,99.90
2023-03-01T01:33:42.517Z,99.90
2023-03-01T01:36:09.613Z,99.90
2023-03-01T01:38:38.357Z,99.90
2023-03-01T01:41:06.366Z,99.90
2023-03-01T01:43:37.530Z,99.90
2023-03-01T01:46:31.590Z,99.90
2023-03-01T01:49:06.328Z,99.90
2023-03-01T01:51:39.232Z,99.90
2023-03-01T01:54:27.451Z,99.90
2023-03-01T01:56:59.801Z,99.90
2023-03-01T01:59:29.360Z,99.90
2023-03-01T02:01:56.103Z,99.90
2023-03-01T02:04:23.638Z,99.90
2023-03-01T02:07:01.024Z,99.90
2023-03-01T02:09:27.878Z,99.90
2023-03-01T02:11:55.220Z,99.90
2023-03-01T02:14:21.884Z,99.90
2023-03-01T02:16:49.016Z,99.90
2023-03-01T02:19:31.809Z,99.90
2023-03-01T02:22:27.905Z,99.90
2023-03-01T02:25:13.122Z,99.90
2023-03-01T02:27:49.917Z,99.90
2023-03-01T02:30:16.928Z,99.90
2023-03-01T02:32:46.705Z,99.90
2023-03-01T02:35:16.829Z,99.90
2023-03-01T02:37:44.152Z,99.90
2023-03-01T02:40:18.346Z,99.90
2023-03-01T02:42:51.896Z,99.90
2023-03-01T02:45:18.881Z,99.90
2023-03-01T02:47:45.675Z,99.90
2023-03-01T02:50:26.143Z,99.90
2023-03-01T02:53:04.758Z,99.90
2023-03-01T02:55:31.346Z,99.90
2023-03-01T02:57:58.343Z,99.90
2023-03-01T03:00:34.111Z,99.90
2023-03-01T03:03:00.686Z,99.90
2023-03-01T03:05:31.583Z,99.90
2023-03-01T03:07:59.523Z,99.90
2023-03-01T03:10:31.947Z,99.90
2023-03-01T03:13:01.914Z,99.90
2023-03-01T03:15:29.891Z,99.90
2023-03-01T03:17:58.304Z,99.90
2023-03-01T03:20:28.905Z,99.90
2023-03-01T03:22:57.198Z,99.90
2023-03-01T03:25:28.208Z,99.90
2023-03-01T03:27:57.577Z,99.90
2023-03-01T03:30:27.363Z,99.90
2023-03-01T03:32:54.061Z,99.90
2023-03-01T03:35:45.268Z,99.90
2023-03-01T03:38:16.619Z,99.90
2023-03-01T03:40:49.123Z,99.90
2023-03-01T03:43:21.256Z,99.90
2023-03-01T03:45:49.579Z,99.90
2023-03-01T03:48:17.222Z,99.90
2023-03-01T03:50:49.598Z,99.90
2023-03-01T03:53:16.473Z,99.90
2023-03-01T03:55:43.102Z,99.90
2023-03-01T03:58:11.082Z,99.90
2023-03-01T04:00:43.185Z,99.90
2023-03-01T04:03:10.773Z,99.90
2023-03-01T04:05:38.656Z,99.90
2023-03-01T04:08:08.035Z,99.90
2023-03-01T04:10:39.783Z,99.90
2023-03-01T04:13:08.087Z,99.90
2023-03-01T04:15:35.195Z,99.90
2023-03-01T04:18:02.362Z,99.90
2023-03-01T04:20:32.094Z,99.90
2023-03-01T04:23:21.225Z,99.90
2023-03-01T04:25:54.968Z,99.90
2023-03-01T04:28:29.892Z,99.90
2023-03-01T04:30:58.482Z,99.90
2023-03-01T04:33:26.264Z,99.90
2023-03-01T04:35:53.367Z,99.90
2023-03-01T04:38:22.050Z,99.90
2023-03-01T04:40:48.689Z,99.90
2023-03-01T04:43:15.662Z,99.90
2023-03-01T04:45:42.885Z,99.90
2023-03-01T04:48:09.650Z,99.90
2023-03-01T04:50:36.230Z,99.90
2023-03-01T04:53:03.041Z,99.90
2023-03-01T04:55:29.892Z,99.90
2023-03-01T04:57:56.777Z,99.90
2023-03-01T05:00:24.244Z,99.90
2023-03-01T05:03:01.728Z,99.90
2023-03-01T05:05:32.361Z,99.90
2023-03-01T05:08:01.522Z,99.90
2023-03-01T05:10:30.943Z,99.90
2023-03-01T05:12:58.638Z,99.90
2023-03-01T05:15:27.548Z,99.90
2023-03-01T05:17:55.348Z,99.90
2023-03-01T05:20:23.808Z,99.90
2023-03-01T05:22:56.439Z,99.90
2023-03-01T05:25:23.152Z,99.90
2023-03-01T05:27:49.730Z,99.90
2023-03-01T05:30:16.945Z,99.90
2023-03-01T05:32:48.876Z,99.90
2023-03-01T05:35:18.118Z,99.90
2023-03-01T05:37:47.550Z,99.90
2023-03-01T05:40:17.364Z,99.90
2023-03-01T05:42:49.431Z,99.90
2023-03-01T05:45:17.556Z,99.90
2023-03-01T05:47:45.972Z,99.90
2023-03-01T05:50:22.206Z,99.90
2023-03-01T05:52:51.491Z,99.90
2023-03-01T05:55:20.070Z,99.90
2023-03-01T05:57:47.530Z,99.90
2023-03-01T06:00:16.176Z,99.90
2023-03-01T06:02:43.072Z,99.90
2023-03-01T06:05:11.710Z,99.90
2023-03-01T06:07:38.600Z,99.90
2023-03-01T06:10:06.881Z,99.90
2023-03-01T06:12:35.324Z,99.90
2023-03-01T06:15:02.497Z,99.90
2023-03-01T06:17:38.088Z,99.90
2023-03-01T06:20:06.854Z,99.90
2023-03-01T06:22:33.461Z,99.90
2023-03-01T06:25:00.104Z,99.90
2023-03-01T06:27:26.758Z,99.90
2023-03-01T06:29:53.450Z,99.90
2023-03-01T06:32:20.102Z,99.90
2023-03-01T06:34:46.730Z,99.90
2023-03-01T06:37:13.407Z,99.90
2023-03-01T06:39:40.014Z,99.90
2023-03-01T06:42:08.093Z,99.90
2023-03-01T06:44:34.803Z,99.90
2023-03-01T06:47:01.393Z,99.90
2023-03-01T06:49:28.032Z,99.90
2023-03-01T06:51:54.688Z,99.90
2023-03-01T06:54:23.275Z,99.90
2023-03-01T06:56:51.124Z,99.90
2023-03-01T06:59:18.195Z,99.90
2023-03-01T07:01:44.908Z,99.90
2023-03-01T07:04:12.294Z,99.90
2023-03-01T07:06:38.917Z,99.90
2023-03-01T07:09:05.508Z,99.90
2023-03-01T07:11:32.203Z,99.90
2023-03-01T07:13:59.348Z,99.90
2023-03-01T07:16:25.971Z,99.90
2023-03-01T07:18:52.678Z,99.90
2023-03-01T07:21:19.283Z,99.90
2023-03-01T07:23:48.828Z,99.90
2023-03-01T07:26:15.382Z,99.90
2023-03-01T07:28:41.928Z,97.90
2023-03-01T07:31:08.553Z,98.70
2023-03-01T07:33:35.249Z,98.70
2023-03-01T07:36:04.554Z,99.00
2023-03-01T07:38:31.853Z,99.60
2023-03-01T07:41:04.023Z,99.30
2023-03-01T07:43:31.374Z,99.20
2023-03-01T07:46:02.427Z,98.30
2023-03-01T07:48:30.305Z,95.90
2023-03-01T07:51:01.381Z,67.50
2023-03-01T07:53:28.250Z,54.50
2023-03-01T07:56:11.319Z,49.50
2023-03-01T07:58:47.391Z,45.50
2023-03-01T08:01:19.482Z,41.40
2023-03-01T08:03:46.564Z,39.30
2023-03-01T08:06:15.355Z,37.80
2023-03-01T08:08:42.378Z,37.00
2023-03-01T08:11:11.444Z,34.90
2023-03-01T08:13:38.031Z,34.20
2023-03-01T08:16:06.980Z,33.60
2023-03-01T08:18:33.589Z,32.40
2023-03-01T08:21:08.467Z,32.40
2023-03-01T08:23:35.370Z,31.00
2023-03-01T08:26:12.871Z,30.00
2023-03-01T08:28:40.291Z,28.60
2023-03-01T08:31:17.010Z,27.70
2023-03-01T08:33:44.195Z,29.70
2023-03-01T08:36:10.937Z,30.30
2023-03-01T08:38:37.471Z,29.60
2023-03-01T08:41:04.933Z,29.00
2023-03-01T08:43:32.160Z,28.00
2023-03-01T08:45:58.849Z,28.20
2023-03-01T08:48:28.070Z,28.20
2023-03-01T08:50:54.715Z,28.60
2023-03-01T08:53:21.275Z,27.90
2023-03-01T08:55:49.928Z,30.30
2023-03-01T08:58:17.247Z,28.30
2023-03-01T09:00:43.838Z,28.40
2023-03-01T09:03:10.414Z,27.20
2023-03-01T09:05:37.764Z,27.50
2023-03-01T09:08:04.807Z,27.00
2023-03-01T09:10:31.399Z,28.50
2023-03-01T09:12:58.006Z,29.00
2023-03-01T09:15:24.539Z,27.40
2023-03-01T09:17:51.173Z,27.30
2023-03-01T09:20:17.730Z,27.80
2023-03-01T09:22:44.791Z,26.80
2023-03-01T09:25:11.387Z,25.40
2023-03-01T09:27:37.963Z,26.90
2023-03-01T09:30:05.617Z,26.00
2023-03-01T09:32:32.391Z,26.20
2023-03-01T09:35:01.967Z,25.40
2023-03-01T09:37:28.487Z,25.20
2023-03-01T09:39:55.028Z,25.80
2023-03-01T09:42:22.248Z,24.70
2023-03-01T09:45:22.772Z,24.60
2023-03-01T09:47:50.055Z,25.40
2023-03-01T09:50:21.858Z,24.60
2023-03-01T09:53:15.713Z,24.70
2023-03-01T09:55:47.191Z,23.70
2023-03-01T09:58:37.856Z,24.30
2023-03-01T10:01:14.985Z,24.40
2023-03-01T10:03:49.276Z,24.60
2023-03-01T10:06:33.901Z,24.10
2023-03-01T10:09:17.918Z,23.80
2023-03-01T10:11:49.515Z,24.20
2023-03-01T10:14:36.522Z,24.30
2023-03-01T10:17:28.474Z,25.80
2023-03-01T10:19:59.215Z,26.30
2023-03-01T10:22:29.343Z,25.80
2023-03-01T10:24:59.668Z,25.80
2023-03-01T10:27:35.116Z,26.90
2023-03-01T10:30:12.204Z,25.90
2023-03-01T10:32:39.167Z,25.00
2023-03-01T10:35:28.189Z,25.30
2023-03-01T10:38:15.146Z,25.70
2023-03-01T10:40:55.870Z,25.90
2023-03-01T10:43:23.350Z,26.20
2023-03-01T10:45:50.263Z,25.20
2023-03-01T10:48:27.017Z,25.40
2023-03-01T10:50:59.809Z,25.80
2023-03-01T10:53:29.876Z,24.70
2023-03-01T10:56:08.649Z,23.80
2023-03-01T10:58:37.878Z,25.90
2023-03-01T11:01:16.320Z,27.10
2023-03-01T11:03:43.005Z,26.30
2023-03-01T11:06:12.506Z,26.30
2023-03-01T11:08:47.383Z,26.20
2023-03-01T11:11:22.969Z,25.30
2023-03-01T11:14:01.448Z,25.00
2023-03-01T11:16:35.384Z,26.50
2023-03-01T11:19:16.359Z,25.50
2023-03-01T11:21:59.148Z,24.90
2023-03-01T11:24:34.815Z,26.40
2023-03-01T11:27:05.099Z,25.30
2023-03-01T11:29:48.744Z,25.40
2023-03-01T11:32:16.604Z,24.90
2023-03-01T11:34:57.294Z,25.70
2023-03-01T11:37:35.875Z,25.20
2023-03-01T11:40:17.710Z,26.40
2023-03-01T11:43:07.442Z,25.10
2023-03-01T11:46:03.313Z,25.30
2023-03-01T11:48:49.902Z,25.50
2023-03-01T11:51:33.385Z,24.70
2023-03-01T11:54:28.133Z,24.20
2023-03-01T11:57:13.085Z,25.10
2023-03-01T12:00:08.981Z,26.30
2023-03-01T12:02:41.786Z,26.00
2023-03-01T12:05:30.232Z,25.60
2023-03-01T12:08:15.467Z,25.40
2023-03-01T12:10:57.769Z,27.30
2023-03-01T12:13:55.026Z,26.40
2023-03-01T12:16:38.421Z,27.00
2023-03-01T12:19:31.210Z,26.40
2023-03-01T12:22:23.700Z,26.30
2023-03-01T12:25:27.551Z,26.60
2023-03-01T12:28:13.785Z,26.60
2023-03-01T12:31:09.218Z,26.40
2023-03-01T12:34:08.101Z,28.20
2023-03-01T12:36:43.662Z,31.70
2023-03-01T12:39:24.929Z,34.50
2023-03-01T12:42:06.214Z,35.80
2023-03-01T12:44:54.399Z,36.80
2023-03-01T12:47:27.518Z,36.90
2023-03-01T12:50:12.628Z,33.30
2023-03-01T12:52:52.122Z,33.20
2023-03-01T12:55:34.247Z,33.70
2023-03-01T12:58:10.551Z,34.10
2023-03-01T13:01:02.645Z,35.00
2023-03-01T13:04:02.018Z,36.00
2023-03-01T13:06:53.163Z,34.30
2023-03-01T13:09:38.436Z,33.00
2023-03-01T13:12:25.092Z,32.60
2023-03-01T13:14:55.569Z,33.20
2023-03-01T13:17:34.666Z,32.60
2023-03-01T13:20:01.521Z,33.10
2023-03-01T13:22:32.487Z,32.10
2023-03-01T13:25:14.112Z,32.80
2023-03-01T13:27:40.852Z,32.20
2023-03-01T13:30:39.308Z,32.00
2023-03-01T13:33:24.155Z,32.90
2023-03-01T13:35:50.769Z,31.20
2023-03-01T13:38:54.635Z,33.30
2023-03-01T13:41:39.443Z,33.30
2023-03-01T13:44:24.723Z,32.20
2023-03-01T13:46:58.709Z,34.10
2023-03-01T13:49:45.613Z,33.70
2023-03-01T13:52:34.497Z,35.10
2023-03-01T13:55:02.751Z,35.10
2023-03-01T13:57:35.339Z,35.00
2023-03-01T14:00:02.025Z,34.50
2023-03-01T14:02:28.621Z,35.00
2023-03-01T14:05:02.080Z,35.10
2023-03-01T14:07:32.364Z,34.10
2023-03-01T14:10:07.283Z,33.50
2023-03-01T14:12:36.553Z,33.50
2023-03-01T14:15:09.291Z,33.70
2023-03-01T14:17:38.947Z,35.70
2023-03-01T14:20:18.474Z,35.90
2023-03-01T14:22:46.077Z,36.20
2023-03-01T14:25:36.681Z,37.00
2023-03-01T14:28:18.116Z,37.40
2023-03-01T14:30:52.670Z,37.40
2023-03-01T14:33:37.219Z,37.10
2023-03-01T14:36:06.571Z,38.30
2023-03-01T14:38:43.365Z,38.90
2023-03-01T14:41:23.355Z,38.10
2023-03-01T14:44:05.442Z,38.60
2023-03-01T14:46:35.946Z,37.50
2023-03-01T14:49:07.089Z,38.80
2023-03-01T14:51:39.068Z,40.70
2023-03-01T14:54:23.338Z,40.00
2023-03-01T14:56:51.993Z,41.20
2023-03-01T14:59:23.228Z,41.50
2023-03-01T15:01:50.860Z,42.20
2023-03-01T15:04:18.727Z,42.10
2023-03-01T15:06:45.442Z,41.90
2023-03-01T15:09:17.235Z,44.20
2023-03-01T15:11:44.722Z,43.50
2023-03-01T15:14:29.072Z,43.60
2023-03-01T15:16:56.789Z,43.40
2023-03-01T15:19:28.600Z,43.70
2023-03-01T15:21:56.132Z,44.30
2023-03-01T15:24:26.422Z,43.90
2023-03-01T15:26:58.218Z,43.40
2023-03-01T15:29:30.647Z,43.90
2023-03-01T15:32:04.920Z,44.00
2023-03-01T15:34:33.864Z,43.70
2023-03-01T15:37:03.101Z,44.50
2023-03-01T15:39:38.637Z,45.20
2023-03-01T15:42:31.093Z,44.80
2023-03-01T15:45:21.455Z,45.00
2023-03-01T15:47:51.020Z,45.50
2023-03-01T15:50:25.541Z,45.70
2023-03-01T15:52:52.864Z,44.40
2023-03-01T15:55:22.562Z,45.50
2023-03-01T15:57:50.876Z,45.90
2023-03-01T16:00:18.517Z,46.20
2023-03-01T16:02:45.704Z,46.10
2023-03-01T16:05:20.105Z,46.10
2023-03-01T16:07:46.714Z,46.80
2023-03-01T16:10:14.182Z,46.60
2023-03-01T16:12:41.003Z,47.20
2023-03-01T16:15:17.738Z,46.90
2023-03-01T16:17:44.423Z,47.30
2023-03-01T16:20:19.655Z,47.50
2023-03-01T16:22:50.127Z,47.30
2023-03-01T16:25:18.831Z,47.90
2023-03-01T16:27:47.729Z,48.10
2023-03-01T16:30:16.696Z,47.60
2023-03-01T16:32:44.890Z,47.90
2023-03-01T16:35:14.621Z,49.00
2023-03-01T16:37:42.071Z,50.20
2023-03-01T16:40:19.004Z,49.30
2023-03-01T16:42:45.603Z,49.40
2023-03-01T16:45:22.709Z,50.10
2023-03-01T16:47:50.983Z,49.90
2023-03-01T16:50:17.608Z,50.10
2023-03-01T16:52:44.268Z,49.90
2023-03-01T16:55:11.329Z,50.70
2023-03-01T16:57:38.781Z,51.20
2023-03-01T17:00:08.556Z,51.60
2023-03-01T17:02:36.570Z,52.70
2023-03-01T17:05:04.458Z,53.80
2023-03-01T17:07:35.123Z,54.40
2023-03-01T17:10:02.957Z,53.70
2023-03-01T17:12:29.737Z,54.40
2023-03-01T17:14:56.317Z,55.40
2023-03-01T17:17:22.981Z,56.40
2023-03-01T17:19:49.712Z,55.70
2023-03-01T17:22:17.485Z,57.00
2023-03-01T17:24:44.639Z,57.80
2023-03-01T17:27:13.116Z,57.70
2023-03-01T17:29:40.784Z,58.20
2023-03-01T17:32:08.482Z,57.70
2023-03-01T17:34:35.438Z,59.20
2023-03-01T17:37:01.988Z,60.80
2023-03-01T17:39:35.929Z,61.10
2023-03-01T17:42:04.940Z,60.80
2023-03-01T17:44:32.806Z,61.30
2023-03-01T17:46:59.567Z,61.80
2023-03-01T17:49:26.404Z,61.50
2023-03-01T17:51:53.145Z,62.40
2023-03-01T17:54:19.810Z,63.00
2023-03-01T17:56:46.455Z,63.50
2023-03-01T17:59:13.055Z,64.90
2023-03-01T18:01:42.615Z,67.50
2023-03-01T18:04:09.534Z,66.40
2023-03-01T18:06:36.970Z,69.20
2023-03-01T18:09:04.207Z,70.00
2023-03-01T18:11:33.017Z,70.80
2023-03-01T18:13:59.810Z,68.20
2023-03-01T18:16:26.534Z,68.90
2023-03-01T18:18:55.300Z,68.20
2023-03-01T18:21:22.826Z,69.80
2023-03-01T18:23:49.731Z,71.50
2023-03-01T18:26:17.575Z,70.50
2023-03-01T18:28:47.692Z,69.80
2023-03-01T18:31:18.361Z,73.10
2023-03-01T18:33:46.091Z,75.80
2023-03-01T18:36:27.432Z,76.00
2023-03-01T18:38:56.064Z,77.00
2023-03-01T18:41:27.325Z,76.90
2023-03-01T18:43:54.485Z,77.90
2023-03-01T18:46:21.859Z,80.50
2023-03-01T18:48:48.831Z,81.90
2023-03-01T18:51:18.464Z,82.00
2023-03-01T18:53:45.662Z,85.50
2023-03-01T18:56:12.789Z,87.10
2023-03-01T18:58:39.883Z,86.40
2023-03-01T19:01:12.275Z,88.30
2023-03-01T19:03:38.841Z,86.20
2023-03-01T19:06:05.550Z,87.40
2023-03-01T19:08:32.475Z,88.40
2023-03-01T19:11:02.387Z,89.80
2023-03-01T19:13:29.061Z,89.60
2023-03-01T19:16:11.914Z,89.80
2023-03-01T19:18:41.051Z,90.70
2023-03-01T19:21:09.355Z,90.20
2023-03-01T19:23:36.681Z,89.20
2023-03-01T19:26:06.713Z,89.10
2023-03-01T19:28:34.446Z,90.20
2023-03-01T19:31:07.480Z,90.00
2023-03-01T19:33:35.386Z,90.00
2023-03-01T19:36:03.551Z,90.90
2023-03-01T19:38:30.793Z,90.30
2023-03-01T19:40:57.810Z,91.60
2023-03-01T19:43:25.147Z,90.90
2023-03-01T19:45:55.472Z,91.40
2023-03-01T19:48:22.925Z,92.00
2023-03-01T19:50:51.220Z,91.60
2023-03-01T19:53:17.881Z,92.20
2023-03-01T19:55:44.596Z,92.30
2023-03-01T19:58:12.083Z,92.10
2023-03-01T20:00:40.045Z,92.30
2023-03-01T20:03:07.118Z,92.60
2023-03-01T20:05:37.708Z,92.40
2023-03-01T20:08:05.312Z,91.90
2023-03-01T20:10:33.847Z,92.20
2023-03-01T20:13:02.560Z,92.40
2023-03-01T20:15:29.517Z,92.80
2023-03-01T20:17:56.319Z,92.50
2023-03-01T20:20:22.965Z,92.00
2023-03-01T20:22:49.562Z,92.00
2023-03-01T20:25:16.303Z,92.40
2023-03-01T20:27:47.262Z,92.40
2023-03-01T20:30:15.066Z,92.70
2023-03-01T20:32:41.738Z,92.70
2023-03-01T20:35:08.751Z,92.50
2023-03-01T20:37:36.606Z,93.00
2023-03-01T20:40:04.148Z,92.10
2023-03-01T20:42:30.748Z,92.30
2023-03-01T20:44:57.394Z,92.90
2023-03-01T20:47:23.977Z,93.00
2023-03-01T20:49:51.922Z,92.60
2023-03-01T20:52:18.712Z,92.80
2023-03-01T20:54:45.340Z,92.70
2023-03-01T20:57:12.013Z,93.40
2023-03-01T20:59:38.634Z,92.90
2023-03-01T21:02:05.246Z,92.70
2023-03-01T21:04:31.874Z,92.80
2023-03-01T21:06:58.479Z,93.40
2023-03-01T21:09:25.052Z,93.10
2023-03-01T21:11:51.585Z,92.90
2023-03-01T21:14:18.487Z,92.60
2023-03-01T21:16:48.079Z,92.40
2023-03-01T21:19:14.994Z,92.20
2023-03-01T21:21:41.566Z,92.40
2023-03-01T21:24:10.373Z,92.40
2023-03-01T21:26:37.140Z,92.70
2023-03-01T21:29:03.941Z,92.70
2023-03-01T21:31:33.796Z,92.80
2023-03-01T21:34:04.216Z,93.70
2023-03-01T21:36:31.783Z,94.10
2023-03-01T21:39:00.813Z,93.70
2023-03-01T21:41:33.117Z,94.00
2023-03-01T21:44:02.878Z,94.60
2023-03-01T21:46:32.245Z,94.50
2023-03-01T21:48:59.642Z,94.70
2023-03-01T21:51:28.055Z,94.20
2023-03-01T21:53:55.545Z,94.50
2023-03-01T21:56:29.687Z,94.40
2023-03-01T21:58:57.432Z,94.60
2023-03-01T22:01:29.049Z,94.20
2023-03-01T22:03:57.840Z,94.40
2023-03-01T22:06:38.106Z,95.00
2023-03-01T22:09:10.284Z,94.80
2023-03-01T22:11:40.206Z,95.20
2023-03-01T22:14:07.682Z,94.70
2023-03-01T22:16:36.309Z,95.20
2023-03-01T22:19:04.914Z,95.00
2023-03-01T22:21:31.476Z,94.90
2023-03-01T22:23:58.506Z,95.60
2023-03-01T22:26:31.767Z,95.80
2023-03-01T22:29:01.425Z,96.30
2023-03-01T22:31:28.747Z,96.20
2023-03-01T22:33:56.562Z,96.20
2023-03-01T22:36:23.774Z,96.10
2023-03-01T22:38:52.207Z,96.00
2023-03-01T22:41:18.776Z,95.90
2023-03-01T22:43:45.312Z,96.20
2023-03-01T22:46:14.376Z,95.60
2023-03-01T22:48:41.502Z,95.30
2023-03-01T22:51:13.371Z,95.60
2023-03-01T22:53:39.931Z,95.80
2023-03-01T22:56:24.374Z,96.40
2023-03-01T22:58:51.020Z,96.10
2023-03-01T23:01:22.447Z,95.90
2023-03-01T23:03:49.606Z,96.40
2023-03-01T23:06:18.306Z,96.40
2023-03-01T23:08:49.910Z,96.30
2023-03-01T23:11:17.990Z,96.10
2023-03-01T23:13:44.872Z,96.80
2023-03-01T23:16:12.265Z,96.20
2023-03-01T23:18:39.772Z,96.40
2023-03-01T23:21:14.976Z,96.60
2023-03-01T23:23:42.350Z,96.80
2023-03-01T23:26:09.306Z,96.80
2023-03-01T23:28:40.707Z,97.00
2023-03-01T23:31:11.157Z,97.40
2023-03-01T23:33:37.838Z,97.40
2023-03-01T23:36:18.423Z,97.50
2023-03-01T23:38:46.876Z,97.80
2023-03-01T23:41:16.180Z,97.70
2023-03-01T23:43:47.761Z,97.90
2023-03-01T23:46:16.325Z,98.10
2023-03-01T23:48:44.163Z,98.30
2023-03-01T23:51:11.626Z,98.00
2023-03-01T23:53:41.257Z,97.80
2023-03-01T23:56:09.835Z,98.20
2023-03-01T23:58:36.411Z,98.20
